createdAt,value
2019-03-09T00:00:15.337Z,1008.21
2019-03-09T00:01:15.327Z,1008.19
2019-03-09T00:02:15.330Z,1008.17
2019-03-09T00:03:15.307Z,1008.16
2019-03-09T00:04:15.296Z,1008.15
2019-03-09T00:05:15.286Z,1008.10
2019-03-09T00:06:15.274Z,1008.06
2019-03-09T00:07:15.264Z,1008.06
2019-03-09T00:08:15.257Z,1008.06
2019-03-09T00:09:15.243Z,1008.05
2019-03-09T00:10:15.235Z,1008.04
2019-03-09T00:11:15.228Z,1008.01
2019-03-09T00:12:15.211Z,1008.00
2019-03-09T00:13:15.201Z,1007.96
2019-03-09T00:14:15.191Z,1007.93
2019-03-09T00:15:15.182Z,1007.88
2019-03-09T00:16:15.170Z,1007.85
2019-03-09T00:17:15.158Z,1007.92
2019-03-09T00:18:15.149Z,1007.89
2019-03-09T00:19:15.137Z,1007.88
2019-03-09T00:20:15.128Z,1007.84
2019-03-09T00:21:15.116Z,1007.82
2019-03-09T00:22:15.106Z,1007.80
2019-03-09T00:23:15.096Z,1007.78
2019-03-09T00:24:15.086Z,1007.82
2019-03-09T00:25:15.075Z,1007.73
2019-03-09T00:26:15.062Z,1007.73
2019-03-09T00:27:15.053Z,1007.70
2019-03-09T00:28:15.058Z,1007.68
2019-03-09T00:29:15.037Z,1007.74
2019-03-09T00:30:15.019Z,1007.71
2019-03-09T00:31:15.010Z,1007.71
2019-03-09T00:32:15.000Z,1007.73
2019-03-09T00:33:14.990Z,1007.68
2019-03-09T00:34:14.978Z,1007.71
2019-03-09T00:35:14.969Z,1007.63
2019-03-09T00:36:14.957Z,1007.66
2019-03-09T00:37:14.945Z,1007.70
2019-03-09T00:38:14.936Z,1007.64
2019-03-09T00:39:14.963Z,1007.65
2019-03-09T00:40:14.915Z,1007.67
2019-03-09T00:41:14.903Z,1007.62
2019-03-09T00:42:14.897Z,1007.65
2019-03-09T00:43:14.882Z,1007.56
2019-03-09T00:44:14.871Z,1007.54
2019-03-09T00:45:14.862Z,1007.54
2019-03-09T00:46:14.854Z,1007.47
2019-03-09T00:47:14.842Z,1007.45
2019-03-09T00:48:14.829Z,1007.52
2019-03-09T00:49:14.819Z,1007.47
2019-03-09T00:50:14.806Z,1007.37
2019-03-09T00:51:14.798Z,1007.40
2019-03-09T00:52:14.788Z,1007.34
2019-03-09T00:53:14.783Z,1007.35
2019-03-09T00:54:15.237Z,1007.33
2019-03-09T00:55:14.753Z,1007.30
2019-03-09T00:56:14.752Z,1007.26
2019-03-09T00:57:14.733Z,1007.26
2019-03-09T00:58:14.723Z,1007.27
2019-03-09T00:59:14.714Z,1007.30
2019-03-09T01:00:14.701Z,1007.29
2019-03-09T01:01:14.692Z,1007.28
2019-03-09T01:02:14.679Z,1007.32
2019-03-09T01:03:14.672Z,1007.30
2019-03-09T01:04:14.663Z,1007.29
2019-03-09T01:05:14.647Z,1007.27
2019-03-09T01:06:14.637Z,1007.26
2019-03-09T01:07:14.627Z,1007.21
2019-03-09T01:08:14.616Z,1007.20
2019-03-09T01:09:14.605Z,1007.24
2019-03-09T01:10:14.595Z,1007.16
2019-03-09T01:11:14.586Z,1007.25
2019-03-09T01:12:14.574Z,1007.20
2019-03-09T01:13:14.563Z,1007.16
2019-03-09T01:14:14.550Z,1007.18
2019-03-09T01:15:14.539Z,1007.15
2019-03-09T01:16:14.529Z,1007.18
2019-03-09T01:17:14.520Z,1007.12
2019-03-09T01:18:14.510Z,1007.11
2019-03-09T01:19:14.500Z,1007.09
2019-03-09T01:20:14.486Z,1007.07
2019-03-09T01:21:14.480Z,1007.05
2019-03-09T01:22:14.468Z,1007.00
2019-03-09T01:23:14.455Z,1007.06
2019-03-09T01:24:14.443Z,1007.00
2019-03-09T01:25:14.433Z,1006.92
2019-03-09T01:26:14.425Z,1006.98
2019-03-09T01:27:14.414Z,1006.87
2019-03-09T01:28:14.403Z,1006.85
2019-03-09T01:29:14.395Z,1006.76
2019-03-09T01:30:14.384Z,1006.81
2019-03-09T01:31:14.373Z,1006.80
2019-03-09T01:32:14.394Z,1006.76
2019-03-09T01:33:14.352Z,1006.74
2019-03-09T01:34:14.340Z,1006.73
2019-03-09T01:35:14.330Z,1006.74
2019-03-09T01:36:14.318Z,1006.74
2019-03-09T01:37:14.314Z,1006.72
2019-03-09T01:38:14.300Z,1006.69
2019-03-09T01:39:14.291Z,1006.73
2019-03-09T01:40:14.278Z,1006.68
2019-03-09T01:41:14.269Z,1006.61
2019-03-09T01:42:14.258Z,1006.64
2019-03-09T01:43:14.246Z,1006.59
2019-03-09T01:44:14.244Z,1006.52
2019-03-09T01:45:14.223Z,1006.51
2019-03-09T01:46:14.210Z,1006.38
2019-03-09T01:47:14.200Z,1006.36
2019-03-09T01:48:14.191Z,1006.31
2019-03-09T01:49:14.178Z,1006.33
2019-03-09T01:50:14.170Z,1006.30
2019-03-09T01:51:14.183Z,1006.32
2019-03-09T01:52:14.158Z,1006.31
2019-03-09T01:53:14.137Z,1006.30
2019-03-09T01:54:14.130Z,1006.16
2019-03-09T01:55:14.117Z,1006.21
2019-03-09T01:56:14.156Z,1006.17
2019-03-09T01:57:14.095Z,1006.19
2019-03-09T01:58:14.085Z,1006.17
2019-03-09T01:59:14.076Z,1006.21
2019-03-09T02:00:14.061Z,1006.12
2019-03-09T02:01:14.052Z,1006.18
2019-03-09T02:02:14.043Z,1006.14
2019-03-09T02:03:14.032Z,1006.17
2019-03-09T02:04:14.024Z,1006.12
2019-03-09T02:05:14.010Z,1006.09
2019-03-09T02:06:13.998Z,1006.05
2019-03-09T02:07:13.989Z,1006.10
2019-03-09T02:08:13.979Z,1006.07
2019-03-09T02:09:13.968Z,1006.01
2019-03-09T02:10:13.957Z,1005.97
2019-03-09T02:11:13.946Z,1006.01
2019-03-09T02:12:13.942Z,1005.95
2019-03-09T02:13:13.923Z,1005.93
2019-03-09T02:14:13.914Z,1005.92
2019-03-09T02:15:13.910Z,1005.89
2019-03-09T02:16:13.894Z,1005.85
2019-03-09T02:17:13.886Z,1005.83
2019-03-09T02:18:13.870Z,1005.82
2019-03-09T02:19:13.861Z,1005.80
2019-03-09T02:20:13.851Z,1005.81
2019-03-09T02:21:13.842Z,1005.77
2019-03-09T02:22:13.831Z,1005.75
2019-03-09T02:23:13.818Z,1005.79
2019-03-09T02:24:13.809Z,1005.73
2019-03-09T02:25:13.797Z,1005.74
2019-03-09T02:26:13.791Z,1005.79
2019-03-09T02:27:13.777Z,1005.75
2019-03-09T02:28:13.787Z,1005.76
2019-03-09T02:29:13.754Z,1005.75
2019-03-09T02:30:13.753Z,1005.74
2019-03-09T02:31:13.736Z,1005.75
2019-03-09T02:32:13.785Z,1005.66
2019-03-09T02:33:13.712Z,1005.70
2019-03-09T02:34:13.701Z,1005.74
2019-03-09T02:35:13.702Z,1005.70
2019-03-09T02:36:13.684Z,1005.65
2019-03-09T02:37:13.670Z,1005.51
2019-03-09T02:38:13.660Z,1005.49
2019-03-09T02:39:13.652Z,1005.48
2019-03-09T02:40:13.653Z,1005.52
2019-03-09T02:41:13.627Z,1005.52
2019-03-09T02:42:13.619Z,1005.54
2019-03-09T02:43:13.609Z,1005.51
2019-03-09T02:44:13.601Z,1005.47
2019-03-09T02:45:13.589Z,1005.50
2019-03-09T02:46:13.575Z,1005.48
2019-03-09T02:47:13.563Z,1005.44
2019-03-09T02:48:13.567Z,1005.44
2019-03-09T02:49:13.543Z,1005.38
2019-03-09T02:50:13.535Z,1005.33
2019-03-09T02:51:13.522Z,1005.36
2019-03-09T02:52:13.515Z,1005.26
2019-03-09T02:53:13.500Z,1005.25
2019-03-09T02:54:13.495Z,1005.24
2019-03-09T02:55:13.482Z,1005.23
2019-03-09T02:56:13.471Z,1005.15
2019-03-09T02:57:13.459Z,1005.13
2019-03-09T02:58:13.450Z,1005.09
2019-03-09T02:59:13.436Z,1005.05
2019-03-09T03:00:13.426Z,1004.97
2019-03-09T03:01:13.415Z,1004.91
2019-03-09T03:02:13.406Z,1004.84
2019-03-09T03:03:13.394Z,1004.88
2019-03-09T03:04:13.391Z,1004.94
2019-03-09T03:05:13.378Z,1004.95
2019-03-09T03:06:13.362Z,1004.92
2019-03-09T03:07:13.358Z,1004.90
2019-03-09T03:08:13.343Z,1004.91
2019-03-09T03:09:13.329Z,1004.95
2019-03-09T03:10:13.370Z,1004.89
2019-03-09T03:11:13.308Z,1004.85
2019-03-09T03:12:13.307Z,1004.89
2019-03-09T03:13:13.296Z,1004.81
2019-03-09T03:14:13.286Z,1004.81
2019-03-09T03:15:13.269Z,1004.75
2019-03-09T03:16:13.257Z,1004.76
2019-03-09T03:17:13.261Z,1004.72
2019-03-09T03:18:13.297Z,1004.70
2019-03-09T03:19:13.227Z,1004.58
2019-03-09T03:20:13.213Z,1004.61
2019-03-09T03:21:13.203Z,1004.53
2019-03-09T03:22:13.194Z,1004.53
2019-03-09T03:23:13.185Z,1004.46
2019-03-09T03:24:13.173Z,1004.42
2019-03-09T03:25:13.164Z,1004.44
2019-03-09T03:26:13.149Z,1004.33
2019-03-09T03:27:13.141Z,1004.33
2019-03-09T03:28:13.129Z,1004.29
2019-03-09T03:29:13.117Z,1004.31
2019-03-09T03:30:13.121Z,1004.27
2019-03-09T03:31:13.098Z,1004.20
2019-03-09T03:32:13.088Z,1004.19
2019-03-09T03:33:13.084Z,1004.19
2019-03-09T03:34:13.066Z,1004.12
2019-03-09T03:35:13.065Z,1004.15
2019-03-09T03:36:13.043Z,1004.14
2019-03-09T03:37:13.034Z,1004.08
2019-03-09T03:38:13.030Z,1004.02
2019-03-09T03:39:13.012Z,1004.04
2019-03-09T03:40:13.004Z,1003.98
2019-03-09T03:41:12.991Z,1004.01
2019-03-09T03:42:12.979Z,1003.93
2019-03-09T03:43:15.952Z,1003.95
2019-03-09T03:44:12.960Z,1003.96
2019-03-09T03:45:12.955Z,1003.89
2019-03-09T03:46:12.935Z,1003.82
2019-03-09T03:47:12.927Z,1003.85
2019-03-09T03:48:12.919Z,1003.79
2019-03-09T03:49:12.906Z,1003.84
2019-03-09T03:50:12.896Z,1003.79
2019-03-09T03:51:12.885Z,1003.68
2019-03-09T03:52:12.878Z,1003.77
2019-03-09T03:53:12.861Z,1003.72
2019-03-09T03:54:12.851Z,1003.62
2019-03-09T03:55:12.861Z,1003.68
2019-03-09T03:56:12.851Z,1003.60
2019-03-09T03:57:12.818Z,1003.63
2019-03-09T03:58:12.812Z,1003.65
2019-03-09T03:59:12.802Z,1003.66
2019-03-09T04:00:12.807Z,1003.63
2019-03-09T04:01:12.776Z,1003.54
2019-03-09T04:02:12.765Z,1003.63
2019-03-09T04:03:12.756Z,1003.59
2019-03-09T04:04:12.746Z,1003.53
2019-03-09T04:05:12.734Z,1003.54
2019-03-09T04:06:12.723Z,1003.46
2019-03-09T04:07:12.712Z,1003.45
2019-03-09T04:08:12.705Z,1003.43
2019-03-09T04:09:12.700Z,1003.43
2019-03-09T04:10:12.679Z,1003.37
2019-03-09T04:11:12.670Z,1003.35
2019-03-09T04:12:12.664Z,1003.31
2019-03-09T04:13:12.649Z,1003.26
2019-03-09T04:14:12.642Z,1003.22
2019-03-09T04:15:12.639Z,1003.20
2019-03-09T04:16:12.617Z,1003.26
2019-03-09T04:17:12.613Z,1003.29
2019-03-09T04:18:12.596Z,1003.24
2019-03-09T04:19:12.583Z,1003.22
2019-03-09T04:20:12.573Z,1003.17
2019-03-09T04:21:12.564Z,1003.13
2019-03-09T04:22:12.553Z,1003.03
2019-03-09T04:23:12.547Z,1003.09
2019-03-09T04:24:12.534Z,1003.01
2019-03-09T04:25:12.524Z,1003.01
2019-03-09T04:26:12.511Z,1002.96
2019-03-09T04:27:12.500Z,1002.92
2019-03-09T04:28:12.490Z,1002.91
2019-03-09T04:29:12.479Z,1002.93
2019-03-09T04:30:12.470Z,1002.85
2019-03-09T04:31:12.460Z,1002.87
2019-03-09T04:32:12.450Z,1002.79
2019-03-09T04:33:12.437Z,1002.81
2019-03-09T04:34:12.453Z,1002.76
2019-03-09T04:35:12.418Z,1002.74
2019-03-09T04:36:12.406Z,1002.78
2019-03-09T04:37:12.393Z,1002.72
2019-03-09T04:38:12.383Z,1002.69
2019-03-09T04:39:12.372Z,1002.64
2019-03-09T04:40:12.403Z,1002.66
2019-03-09T04:41:12.356Z,1002.66
2019-03-09T04:42:12.340Z,1002.65
2019-03-09T04:43:12.331Z,1002.63
2019-03-09T04:44:12.320Z,1002.54
2019-03-09T04:45:12.328Z,1002.53
2019-03-09T04:46:12.298Z,1002.54
2019-03-09T04:47:12.287Z,1002.49
2019-03-09T04:48:12.277Z,1002.42
2019-03-09T04:49:12.268Z,1002.40
2019-03-09T04:50:12.254Z,1002.38
2019-03-09T04:51:12.243Z,1002.33
2019-03-09T04:52:12.235Z,1002.30
2019-03-09T04:53:12.225Z,1002.25
2019-03-09T04:54:12.212Z,1002.21
2019-03-09T04:55:12.203Z,1002.22
2019-03-09T04:56:12.191Z,1002.04
2019-03-09T04:57:12.182Z,1002.10
2019-03-09T04:58:12.172Z,1002.09
2019-03-09T04:59:12.163Z,1002.02
2019-03-09T05:00:12.151Z,1002.15
2019-03-09T05:01:12.138Z,1002.11
2019-03-09T05:02:12.129Z,1002.07
2019-03-09T05:03:12.117Z,1002.03
2019-03-09T05:04:12.109Z,1001.99
2019-03-09T05:05:12.096Z,1001.92
2019-03-09T05:06:12.085Z,1001.87
2019-03-09T05:07:12.074Z,1001.87
2019-03-09T05:08:12.070Z,1001.81
2019-03-09T05:09:12.052Z,1001.80
2019-03-09T05:10:12.043Z,1001.73
2019-03-09T05:11:12.032Z,1001.87
2019-03-09T05:12:12.023Z,1001.73
2019-03-09T05:13:12.012Z,1001.73
2019-03-09T05:14:12.000Z,1001.72
2019-03-09T05:15:11.990Z,1001.61
2019-03-09T05:16:11.977Z,1001.61
2019-03-09T05:17:11.966Z,1001.62
2019-03-09T05:18:11.957Z,1001.66
2019-03-09T05:19:11.946Z,1001.55
2019-03-09T05:20:11.937Z,1001.56
2019-03-09T05:21:11.935Z,1001.54
2019-03-09T05:22:11.915Z,1001.54
2019-03-09T05:23:11.904Z,1001.51
2019-03-09T05:24:11.897Z,1001.51
2019-03-09T05:25:11.883Z,1001.54
2019-03-09T05:26:11.878Z,1001.47
2019-03-09T05:27:11.862Z,1001.39
2019-03-09T05:28:11.850Z,1001.42
2019-03-09T05:29:11.842Z,1001.31
2019-03-09T05:30:11.829Z,1001.23
2019-03-09T05:31:11.819Z,1001.30
2019-03-09T05:32:11.808Z,1001.28
2019-03-09T05:33:11.798Z,1001.20
2019-03-09T05:34:11.834Z,1001.26
2019-03-09T05:35:11.778Z,1001.19
2019-03-09T05:36:11.767Z,1001.18
2019-03-09T05:37:11.756Z,1001.13
2019-03-09T05:38:11.747Z,1001.06
2019-03-09T05:39:11.738Z,1001.05
2019-03-09T05:40:11.723Z,1001.13
2019-03-09T05:41:11.714Z,1001.07
2019-03-09T05:42:11.704Z,1001.05
2019-03-09T05:43:11.692Z,1001.09
2019-03-09T05:44:11.683Z,1001.00
2019-03-09T05:45:11.671Z,1001.04
2019-03-09T05:46:11.658Z,1001.06
2019-03-09T05:47:11.651Z,1000.96
2019-03-09T05:48:11.639Z,1000.94
2019-03-09T05:49:11.630Z,1000.96
2019-03-09T05:50:11.617Z,1000.85
2019-03-09T05:51:11.612Z,1000.87
2019-03-09T05:52:11.597Z,1000.86
2019-03-09T05:53:11.591Z,1000.81
2019-03-09T05:54:11.575Z,1000.74
2019-03-09T05:55:11.563Z,1000.74
2019-03-09T05:56:11.555Z,1000.73
2019-03-09T05:57:11.541Z,1000.70
2019-03-09T05:58:11.531Z,1000.75
2019-03-09T05:59:11.525Z,1000.67
2019-03-09T06:00:11.512Z,1000.76
2019-03-09T06:01:11.501Z,1000.77
2019-03-09T06:02:11.491Z,1000.75
2019-03-09T06:03:11.479Z,1000.77
2019-03-09T06:04:11.467Z,1000.80
2019-03-09T06:05:11.457Z,1000.73
2019-03-09T06:06:11.446Z,1000.64
2019-03-09T06:07:11.436Z,1000.71
2019-03-09T06:08:11.429Z,1000.65
2019-03-09T06:09:11.415Z,1000.67
2019-03-09T06:10:11.406Z,1000.71
2019-03-09T06:11:11.396Z,1000.55
2019-03-09T06:12:11.385Z,1000.59
2019-03-09T06:13:11.379Z,1000.50
2019-03-09T06:14:11.363Z,1000.58
2019-03-09T06:15:11.352Z,1000.56
2019-03-09T06:16:11.341Z,1000.73
2019-03-09T06:17:11.332Z,1000.63
2019-03-09T06:18:11.321Z,1000.55
2019-03-09T06:19:11.311Z,1000.51
2019-03-09T06:20:11.299Z,1000.53
2019-03-09T06:21:11.286Z,1000.61
2019-03-09T06:22:11.276Z,1000.47
2019-03-09T06:23:11.270Z,1000.49
2019-03-09T06:24:11.257Z,1000.50
2019-03-09T06:25:11.252Z,1000.41
2019-03-09T06:26:11.240Z,1000.51
2019-03-09T06:27:11.223Z,1000.44
2019-03-09T06:28:11.229Z,1000.26
2019-03-09T06:29:11.220Z,1000.38
2019-03-09T06:30:11.195Z,1000.40
2019-03-09T06:31:11.181Z,1000.37
2019-03-09T06:32:11.172Z,1000.41
2019-03-09T06:33:11.162Z,1000.35
2019-03-09T06:34:11.152Z,1000.34
2019-03-09T06:35:11.139Z,1000.32
2019-03-09T06:36:11.141Z,1000.35
2019-03-09T06:37:11.120Z,1000.25
2019-03-09T06:38:11.109Z,1000.29
2019-03-09T06:39:11.096Z,1000.30
2019-03-09T06:40:11.087Z,1000.26
2019-03-09T06:41:11.076Z,1000.22
2019-03-09T06:42:11.080Z,1000.18
2019-03-09T06:43:11.055Z,1000.11
2019-03-09T06:44:11.042Z,1000.20
2019-03-09T06:45:11.033Z,1000.14
2019-03-09T06:46:11.024Z,1000.12
2019-03-09T06:47:11.014Z,1000.09
2019-03-09T06:48:11.004Z,1000.07
2019-03-09T06:49:10.990Z,1000.14
2019-03-09T06:50:10.985Z,1000.12
2019-03-09T06:51:10.971Z,1000.11
2019-03-09T06:52:10.959Z,1000.06
2019-03-09T06:53:10.947Z,1000.11
2019-03-09T06:54:10.939Z,1000.00
2019-03-09T06:55:10.927Z,1000.12
2019-03-09T06:56:10.920Z,1000.13
2019-03-09T06:57:14.149Z,1000.11
2019-03-09T06:58:10.895Z,1000.08
2019-03-09T06:59:10.886Z,1000.12
2019-03-09T07:00:10.876Z,1000.07
2019-03-09T07:01:10.863Z,999.97
2019-03-09T07:02:10.854Z,999.94
2019-03-09T07:03:10.846Z,999.93
2019-03-09T07:04:10.833Z,999.92
2019-03-09T07:05:10.820Z,999.85
2019-03-09T07:06:10.814Z,999.83
2019-03-09T07:07:10.803Z,999.83
2019-03-09T07:08:10.793Z,999.84
2019-03-09T07:09:10.778Z,999.87
2019-03-09T07:10:10.771Z,999.85
2019-03-09T07:11:10.758Z,999.86
2019-03-09T07:12:10.747Z,999.87
2019-03-09T07:13:10.736Z,999.90
2019-03-09T07:14:10.729Z,999.87
2019-03-09T07:15:10.716Z,999.80
2019-03-09T07:16:10.706Z,999.80
2019-03-09T07:17:10.695Z,999.79
2019-03-09T07:18:10.683Z,999.77
2019-03-09T07:19:10.673Z,999.77
2019-03-09T07:20:12.836Z,999.69
2019-03-09T07:21:10.652Z,999.62
2019-03-09T07:22:10.640Z,999.58
2019-03-09T07:23:10.630Z,999.65
2019-03-09T07:24:10.618Z,999.58
2019-03-09T07:25:10.609Z,999.73
2019-03-09T07:26:10.598Z,999.76
2019-03-09T07:27:10.588Z,999.77
2019-03-09T07:28:10.578Z,999.73
2019-03-09T07:29:10.569Z,999.75
2019-03-09T07:30:10.557Z,999.73
2019-03-09T07:31:10.545Z,999.64
2019-03-09T07:32:10.538Z,999.66
2019-03-09T07:33:10.529Z,999.66
2019-03-09T07:34:10.516Z,999.60
2019-03-09T07:35:10.502Z,999.64
2019-03-09T07:36:10.493Z,999.68
2019-03-09T07:37:10.484Z,999.70
2019-03-09T07:38:10.471Z,999.77
2019-03-09T07:39:10.459Z,999.76
2019-03-09T07:40:10.451Z,999.69
2019-03-09T07:41:10.439Z,999.70
2019-03-09T07:42:10.429Z,999.70
2019-03-09T07:43:10.429Z,999.64
2019-03-09T07:44:10.411Z,999.50
2019-03-09T07:45:10.400Z,999.57
2019-03-09T07:46:10.384Z,999.42
2019-03-09T07:47:10.375Z,999.44
2019-03-09T07:48:10.372Z,999.45
2019-03-09T07:49:10.352Z,999.34
2019-03-09T07:50:10.343Z,999.42
2019-03-09T07:51:10.333Z,999.52
2019-03-09T07:52:10.323Z,999.51
2019-03-09T07:53:10.309Z,999.31
2019-03-09T07:54:10.301Z,999.48
2019-03-09T07:55:10.291Z,999.46
2019-03-09T07:56:10.279Z,999.37
2019-03-09T07:57:10.268Z,999.44
2019-03-09T07:58:10.258Z,999.51
2019-03-09T07:59:10.249Z,999.43
2019-03-09T08:00:10.235Z,999.50
2019-03-09T08:01:10.225Z,999.42
2019-03-09T08:02:10.244Z,999.52
2019-03-09T08:03:10.209Z,999.46
2019-03-09T08:04:10.197Z,999.53
2019-03-09T08:05:10.182Z,999.58
2019-03-09T08:06:10.179Z,999.60
2019-03-09T08:07:10.164Z,999.62
2019-03-09T08:08:10.150Z,999.62
2019-03-09T08:09:10.141Z,999.58
2019-03-09T08:10:10.130Z,999.56
2019-03-09T08:11:10.118Z,999.56
2019-03-09T08:12:10.109Z,999.63
2019-03-09T08:13:10.101Z,999.58
2019-03-09T08:14:10.089Z,999.71
2019-03-09T08:15:10.076Z,999.74
2019-03-09T08:16:10.068Z,999.75
2019-03-09T08:17:10.056Z,999.82
2019-03-09T08:18:10.046Z,999.85
2019-03-09T08:19:10.033Z,999.86
2019-03-09T08:20:10.032Z,999.93
2019-03-09T08:21:10.017Z,999.93
2019-03-09T08:22:10.011Z,1000.04
2019-03-09T08:23:09.995Z,999.97
2019-03-09T08:24:09.981Z,999.86
2019-03-09T08:25:09.968Z,999.84
2019-03-09T08:26:09.960Z,999.89
2019-03-09T08:27:09.951Z,999.90
2019-03-09T08:28:09.940Z,999.89
2019-03-09T08:29:09.926Z,999.86
2019-03-09T08:30:09.924Z,999.93
2019-03-09T08:31:09.903Z,999.99
2019-03-09T08:32:09.963Z,1000.15
2019-03-09T08:33:09.899Z,1000.05
2019-03-09T08:34:09.877Z,1000.07
2019-03-09T08:35:09.868Z,1000.03
2019-03-09T08:36:09.851Z,1000.08
2019-03-09T08:37:09.856Z,1000.02
2019-03-09T08:38:09.832Z,999.99
2019-03-09T08:39:09.820Z,1000.01
2019-03-09T08:40:09.809Z,999.91
2019-03-09T08:41:09.831Z,999.98
2019-03-09T08:42:09.802Z,1000.00
2019-03-09T08:43:09.774Z,1000.06
2019-03-09T08:44:09.763Z,1000.07
2019-03-09T08:45:09.755Z,1000.11
2019-03-09T08:46:09.747Z,1000.02
2019-03-09T08:47:09.741Z,999.97
2019-03-09T08:48:09.744Z,1000.06
2019-03-09T08:49:09.740Z,1000.12
2019-03-09T08:50:09.723Z,1000.10
2019-03-09T08:51:09.697Z,1000.18
2019-03-09T08:52:09.684Z,1000.12
2019-03-09T08:53:09.692Z,1000.16
2019-03-09T08:54:09.656Z,1000.19
2019-03-09T08:55:09.658Z,1000.16
2019-03-09T08:56:09.638Z,1000.18
2019-03-09T08:57:09.624Z,1000.19
2019-03-09T08:58:09.633Z,1000.21
2019-03-09T08:59:09.600Z,1000.17
2019-03-09T09:00:09.591Z,1000.23
2019-03-09T09:01:09.584Z,1000.29
2019-03-09T09:02:09.577Z,1000.28
2019-03-09T09:03:09.565Z,1000.38
2019-03-09T09:04:09.556Z,1000.51
2019-03-09T09:05:09.536Z,1000.56
2019-03-09T09:06:09.525Z,1000.52
2019-03-09T09:07:09.517Z,1000.47
2019-03-09T09:08:09.502Z,1000.42
2019-03-09T09:09:09.496Z,1000.38
2019-03-09T09:10:09.481Z,1000.40
2019-03-09T09:11:09.471Z,1000.54
2019-03-09T09:12:09.463Z,1000.44
2019-03-09T09:13:09.451Z,1000.20
2019-03-09T09:14:09.443Z,1000.28
2019-03-09T09:15:09.430Z,1000.19
2019-03-09T09:16:09.418Z,1000.29
2019-03-09T09:17:09.407Z,1000.30
2019-03-09T09:18:09.400Z,1000.32
2019-03-09T09:19:09.388Z,1000.31
2019-03-09T09:20:09.374Z,1000.23
2019-03-09T09:21:09.363Z,1000.18
2019-03-09T09:22:09.352Z,1000.25
2019-03-09T09:23:09.340Z,1000.25
2019-03-09T09:24:09.332Z,1000.29
2019-03-09T09:25:09.319Z,1000.21
2019-03-09T09:26:09.308Z,1000.25
2019-03-09T09:27:09.298Z,1000.29
2019-03-09T09:28:09.289Z,1000.31
2019-03-09T09:29:09.278Z,1000.31
2019-03-09T09:30:09.406Z,1000.02
2019-03-09T09:31:09.260Z,1000.01
2019-03-09T09:32:09.245Z,1000.40
2019-03-09T09:33:09.511Z,1000.11
2019-03-09T09:34:09.322Z,1000.13
2019-03-09T09:35:09.216Z,1000.19
2019-03-09T09:36:09.203Z,999.92
2019-03-09T09:37:09.277Z,1000.10
2019-03-09T09:38:09.188Z,1000.21
2019-03-09T09:39:09.172Z,1000.24
2019-03-09T09:40:09.162Z,1000.52
2019-03-09T09:41:09.149Z,1000.66
2019-03-09T09:42:09.138Z,1000.63
2019-03-09T09:43:09.127Z,1000.51
2019-03-09T09:44:09.306Z,1000.34
2019-03-09T09:45:09.105Z,1000.35
2019-03-09T09:46:09.130Z,1000.50
2019-03-09T09:47:09.089Z,1000.55
2019-03-09T09:48:09.080Z,1000.32
2019-03-09T09:49:09.071Z,1000.46
2019-03-09T09:50:09.296Z,1000.54
2019-03-09T09:51:09.073Z,1000.91
2019-03-09T09:52:09.034Z,1000.49
2019-03-09T09:53:09.022Z,1000.44
2019-03-09T09:54:09.009Z,1000.86
2019-03-09T09:55:08.997Z,1000.65
2019-03-09T09:56:09.012Z,1000.33
2019-03-09T09:57:08.975Z,1000.68
2019-03-09T09:58:08.964Z,1000.57
2019-03-09T09:59:08.964Z,1000.56
2019-03-09T10:00:08.945Z,1000.51
2019-03-09T10:01:09.173Z,1000.84
2019-03-09T10:02:08.924Z,1000.84
2019-03-09T10:03:08.963Z,1000.75
2019-03-09T10:04:08.953Z,1000.68
2019-03-09T10:05:08.893Z,1000.74
2019-03-09T10:06:09.945Z,1000.80
2019-03-09T10:07:09.016Z,1000.35
2019-03-09T10:08:08.869Z,1000.40
2019-03-09T10:09:08.957Z,1000.83
2019-03-09T10:10:08.895Z,1000.76
2019-03-09T10:11:08.934Z,1000.53
2019-03-09T10:12:08.830Z,1000.75
2019-03-09T10:13:08.817Z,1000.80
2019-03-09T10:14:08.848Z,1000.75
2019-03-09T10:15:08.792Z,1000.80
2019-03-09T10:16:08.894Z,1000.54
2019-03-09T10:17:08.814Z,1000.98
2019-03-09T10:18:08.763Z,1000.89
2019-03-09T10:19:11.055Z,1000.82
2019-03-09T10:20:08.746Z,1001.00
2019-03-09T10:21:08.729Z,1000.66
2019-03-09T10:22:08.720Z,1000.83
2019-03-09T10:23:08.719Z,1000.56
2019-03-09T10:24:09.649Z,1000.92
2019-03-09T10:25:08.686Z,1000.66
2019-03-09T10:26:08.673Z,1000.80
2019-03-09T10:27:08.660Z,1000.67
2019-03-09T10:28:08.653Z,1001.15
2019-03-09T10:29:08.641Z,1000.75
2019-03-09T10:30:08.631Z,1000.92
2019-03-09T10:31:08.689Z,1000.78
2019-03-09T10:32:08.611Z,1000.78
2019-03-09T10:33:08.598Z,1001.11
2019-03-09T10:34:08.597Z,1000.92
2019-03-09T10:35:08.575Z,1000.82
2019-03-09T10:36:08.566Z,1000.80
2019-03-09T10:37:08.557Z,1000.82
2019-03-09T10:38:08.545Z,1000.87
2019-03-09T10:39:08.533Z,1000.93
2019-03-09T10:40:08.524Z,1000.70
2019-03-09T10:41:08.510Z,1000.74
2019-03-09T10:42:08.524Z,1000.65
2019-03-09T10:43:08.494Z,1000.63
2019-03-09T10:44:08.489Z,1000.89
2019-03-09T10:45:08.478Z,1001.18
2019-03-09T10:46:08.457Z,1001.22
2019-03-09T10:47:08.450Z,1000.85
2019-03-09T10:48:08.441Z,1000.87
2019-03-09T10:49:08.425Z,1001.10
2019-03-09T10:50:08.414Z,1001.02
2019-03-09T10:51:08.405Z,1001.10
2019-03-09T10:52:08.393Z,1000.61
2019-03-09T10:53:08.390Z,1001.16
2019-03-09T10:54:08.379Z,1001.04
2019-03-09T10:55:08.363Z,1001.09
2019-03-09T10:56:08.351Z,1001.24
2019-03-09T10:57:08.344Z,1000.99
2019-03-09T10:58:08.331Z,1001.08
2019-03-09T10:59:08.321Z,1001.39
2019-03-09T11:00:08.307Z,1001.07
2019-03-09T11:01:08.296Z,1000.96
2019-03-09T11:02:08.332Z,1001.17
2019-03-09T11:03:08.278Z,1001.07
2019-03-09T11:04:08.278Z,1001.17
2019-03-09T11:05:08.256Z,1001.12
2019-03-09T11:06:08.250Z,1001.11
2019-03-09T11:07:08.238Z,1001.16
2019-03-09T11:08:08.222Z,1001.10
2019-03-09T11:09:08.213Z,1001.19
2019-03-09T11:10:08.198Z,1001.25
2019-03-09T11:11:08.189Z,1001.23
2019-03-09T11:12:08.188Z,1001.23
2019-03-09T11:13:08.175Z,1001.19
2019-03-09T11:14:08.156Z,1001.18
2019-03-09T11:15:08.144Z,1001.15
2019-03-09T11:16:08.139Z,1001.27
2019-03-09T11:17:08.126Z,1001.10
2019-03-09T11:18:08.115Z,1001.28
2019-03-09T11:19:08.113Z,1001.30
2019-03-09T11:20:08.094Z,1001.21
2019-03-09T11:21:08.081Z,1001.18
2019-03-09T11:22:08.072Z,1001.21
2019-03-09T11:23:08.056Z,1001.21
2019-03-09T11:24:08.048Z,1001.14
2019-03-09T11:25:08.042Z,1001.14
2019-03-09T11:26:08.032Z,1001.17
2019-03-09T11:27:08.024Z,1001.07
2019-03-09T11:28:08.010Z,1001.17
2019-03-09T11:29:07.991Z,1001.23
2019-03-09T11:30:07.984Z,1001.09
2019-03-09T11:31:07.972Z,1001.19
2019-03-09T11:32:07.965Z,1001.16
2019-03-09T11:33:07.955Z,1001.13
2019-03-09T11:34:07.939Z,1001.22
2019-03-09T11:35:07.930Z,1001.15
2019-03-09T11:36:07.920Z,1001.08
2019-03-09T11:37:07.906Z,1000.94
2019-03-09T11:38:07.905Z,1001.00
2019-03-09T11:39:07.894Z,1000.89
2019-03-09T11:40:07.878Z,1000.77
2019-03-09T11:41:18.554Z,1000.89
2019-03-09T11:42:08.852Z,1000.81
2019-03-09T11:43:07.845Z,1000.82
2019-03-09T11:44:07.834Z,1000.94
2019-03-09T11:45:07.821Z,1000.96
2019-03-09T11:46:07.812Z,1001.31
2019-03-09T11:47:07.803Z,1000.85
2019-03-09T11:48:07.790Z,1001.00
2019-03-09T11:49:07.779Z,1000.90
2019-03-09T11:50:07.769Z,1001.00
2019-03-09T11:51:07.757Z,1001.03
2019-03-09T11:52:07.747Z,1001.17
2019-03-09T11:53:07.738Z,1000.89
2019-03-09T11:54:07.727Z,1001.10
2019-03-09T11:55:07.716Z,1001.10
2019-03-09T11:56:07.702Z,1000.86
2019-03-09T11:57:07.694Z,1000.98
2019-03-09T11:58:07.685Z,1000.82
2019-03-09T11:59:07.672Z,1000.76
2019-03-09T12:00:07.662Z,1000.83
2019-03-09T12:01:07.651Z,1000.85
2019-03-09T12:02:07.637Z,1000.92
2019-03-09T12:03:07.629Z,1000.91
2019-03-09T12:04:07.618Z,1000.92
2019-03-09T12:05:07.613Z,1000.82
2019-03-09T12:06:07.601Z,1000.75
2019-03-09T12:07:07.587Z,1001.15
2019-03-09T12:08:07.579Z,1001.05